Etusivu
METAR-TAF:

METAR-TAF

Lentoasemat :

Xi’an Xianyangin kansainvälinen lentoasema

Xi’an, Kiina

Leveyspiiri: 34-26N, Pituuspiiri: 108-45E, korkeus merenpinnasta: 479 m

Tämänhetkinen sää

Tämä raportti tehtiin 20 minuuttia sitten, kello 09.00 UTC
Tuuli 4 kn kaakosta, vaihdellen idän ja etelän/kaakon välillä
Lämpötila 10°C
Kosteus 46%
Ilmanpaine 1020 hPa
Näkyvyys: 7000 m

METAR: ZLXY 190900Z 13002MPS 080V160 7000 NSC 10/M01 Q1020 NOSIG

Aika: 17:20 (09:20 UTC)

Sääennuste

Tämä raportti tehtiin 6 tuntia ja 18 minuuttia sitten, kello 03.02 UTC
Ennuste voimassa 19. päivästä klo 06 UTC - 20. päivään klo 06 UTC
Tuuli 6 kn idästä
Näkyvyys: 3000 m
usvaa

TAF: ZLXY 190302Z 1906/2006 10003MPS 3000 HZ NSC TX12/1907Z TNM04/23Z

Säähavainnot ja -ennusteet yli 4000 lentoasemalta (METAR- ja TAF-raportit).

Käytössä olevat sääasemat on merkitty karttaan keltaisilla ja punaisilla pisteillä.

Aseta hiiri pisteen päälle nähdäksesi sääaseman nimen.

Klikkaa sitten nähdäksesi säähavainnot ja -ennusteet.

Kartan vaihtaminen: klikkaa mustalla rastilla varustettuja vihreitä pisteitä, niin voit zoomata sisään; viivalla varustettua vihreää pistettä, niin voit zoomata ulos tai vihreitä nuolia, niin pääset viereisille kartoille.


METAR-TAF: